sensor_id;sensor_type;location;lat;lon;timestamp;P1;durP1;ratioP1;P2;durP2;ratioP2
21591;SDS011;10958;50.892;3.992;2022-07-23T00:02:06;15.85;;;10.15;;
21591;SDS011;10958;50.892;3.992;2022-07-23T00:04:32;13.32;;;9.40;;
21591;SDS011;10958;50.892;3.992;2022-07-23T00:06:58;13.18;;;9.25;;
21591;SDS011;10958;50.892;3.992;2022-07-23T00:09:24;14.27;;;9.57;;
21591;SDS011;10958;50.892;3.992;2022-07-23T00:11:50;11.90;;;10.30;;
21591;SDS011;10958;50.892;3.992;2022-07-23T00:14:15;15.65;;;9.93;;
21591;SDS011;10958;50.892;3.992;2022-07-23T00:16:41;14.20;;;9.50;;
21591;SDS011;10958;50.892;3.992;2022-07-23T00:19:07;15.18;;;9.90;;
21591;SDS011;10958;50.892;3.992;2022-07-23T00:21:32;12.70;;;9.73;;
21591;SDS011;10958;50.892;3.992;2022-07-23T00:23:58;12.73;;;10.18;;
21591;SDS011;10958;50.892;3.992;2022-07-23T00:26:24;13.02;;;9.57;;
21591;SDS011;10958;50.892;3.992;2022-07-23T00:28:49;14.45;;;10.25;;
21591;SDS011;10958;50.892;3.992;2022-07-23T00:31:15;13.20;;;9.63;;
21591;SDS011;10958;50.892;3.992;2022-07-23T00:33:40;13.13;;;11.20;;
21591;SDS011;10958;50.892;3.992;2022-07-23T00:36:06;14.50;;;11.00;;
21591;SDS011;10958;50.892;3.992;2022-07-23T00:38:32;14.55;;;11.23;;
21591;SDS011;10958;50.892;3.992;2022-07-23T00:40:58;12.35;;;10.93;;
21591;SDS011;10958;50.892;3.992;2022-07-23T00:43:24;13.95;;;11.55;;
21591;SDS011;10958;50.892;3.992;2022-07-23T00:45:50;17.67;;;11.95;;
21591;SDS011;10958;50.892;3.992;2022-07-23T00:48:15;12.98;;;10.77;;
21591;SDS011;10958;50.892;3.992;2022-07-23T00:50:42;12.40;;;11.10;;
21591;SDS011;10958;50.892;3.992;2022-07-23T00:53:08;14.48;;;11.63;;
21591;SDS011;10958;50.892;3.992;2022-07-23T00:55:35;19.25;;;11.52;;
21591;SDS011;10958;50.892;3.992;2022-07-23T00:58:01;15.25;;;12.35;;
21591;SDS011;10958;50.892;3.992;2022-07-23T01:00:27;17.85;;;11.70;;
21591;SDS011;10958;50.892;3.992;2022-07-23T01:02:53;14.32;;;10.82;;
21591;SDS011;10958;50.892;3.992;2022-07-23T01:05:18;19.52;;;12.00;;
21591;SDS011;10958;50.892;3.992;2022-07-23T01:07:47;15.70;;;12.38;;
21591;SDS011;10958;50.892;3.992;2022-07-23T01:10:14;15.30;;;11.85;;
21591;SDS011;10958;50.892;3.992;2022-07-23T01:13:02;16.77;;;12.40;;
21591;SDS011;10958;50.892;3.992;2022-07-23T01:15:33;16.77;;;11.77;;
21591;SDS011;10958;50.892;3.992;2022-07-23T01:18:01;18.70;;;12.93;;
21591;SDS011;10958;50.892;3.992;2022-07-23T01:20:28;18.20;;;13.52;;
21591;SDS011;10958;50.892;3.992;2022-07-23T01:22:54;20.25;;;14.18;;
21591;SDS011;10958;50.892;3.992;2022-07-23T01:25:20;16.73;;;13.55;;
21591;SDS011;10958;50.892;3.992;2022-07-23T01:27:46;19.25;;;13.00;;
21591;SDS011;10958;50.892;3.992;2022-07-23T01:30:13;18.73;;;13.60;;
21591;SDS011;10958;50.892;3.992;2022-07-23T01:32:39;21.00;;;13.52;;
21591;SDS011;10958;50.892;3.992;2022-07-23T01:35:05;17.05;;;13.30;;
21591;SDS011;10958;50.892;3.992;2022-07-23T01:37:31;16.25;;;12.45;;
21591;SDS011;10958;50.892;3.992;2022-07-23T01:39:57;19.85;;;14.40;;
21591;SDS011;10958;50.892;3.992;2022-07-23T01:42:22;21.08;;;15.40;;
21591;SDS011;10958;50.892;3.992;2022-07-23T01:44:48;18.17;;;14.45;;
21591;SDS011;10958;50.892;3.992;2022-07-23T01:47:14;17.38;;;14.25;;
21591;SDS011;10958;50.892;3.992;2022-07-23T01:49:40;17.58;;;14.02;;
21591;SDS011;10958;50.892;3.992;2022-07-23T01:52:05;17.52;;;12.95;;
21591;SDS011;10958;50.892;3.992;2022-07-23T01:54:34;15.82;;;13.43;;
21591;SDS011;10958;50.892;3.992;2022-07-23T01:57:00;18.02;;;14.20;;
21591;SDS011;10958;50.892;3.992;2022-07-23T01:59:26;20.98;;;13.45;;
21591;SDS011;10958;50.892;3.992;2022-07-23T02:01:52;19.80;;;14.45;;
21591;SDS011;10958;50.892;3.992;2022-07-23T02:04:19;19.70;;;13.88;;
21591;SDS011;10958;50.892;3.992;2022-07-23T02:06:46;16.90;;;13.27;;
21591;SDS011;10958;50.892;3.992;2022-07-23T02:09:12;19.02;;;13.65;;
21591;SDS011;10958;50.892;3.992;2022-07-23T02:11:38;15.85;;;12.77;;
21591;SDS011;10958;50.892;3.992;2022-07-23T02:14:03;16.65;;;12.82;;
21591;SDS011;10958;50.892;3.992;2022-07-23T02:16:29;16.17;;;12.68;;
21591;SDS011;10958;50.892;3.992;2022-07-23T02:18:55;19.23;;;14.25;;
21591;SDS011;10958;50.892;3.992;2022-07-23T02:21:20;19.65;;;12.60;;
21591;SDS011;10958;50.892;3.992;2022-07-23T02:23:46;18.15;;;13.38;;
21591;SDS011;10958;50.892;3.992;2022-07-23T02:26:12;22.02;;;13.10;;
21591;SDS011;10958;50.892;3.992;2022-07-23T02:28:38;17.92;;;12.27;;
21591;SDS011;10958;50.892;3.992;2022-07-23T02:31:03;18.75;;;13.07;;
21591;SDS011;10958;50.892;3.992;2022-07-23T02:33:30;19.75;;;12.48;;
21591;SDS011;10958;50.892;3.992;2022-07-23T02:35:56;16.30;;;13.38;;
21591;SDS011;10958;50.892;3.992;2022-07-23T02:38:21;21.15;;;12.65;;
21591;SDS011;10958;50.892;3.992;2022-07-23T02:40:47;18.58;;;13.38;;
21591;SDS011;10958;50.892;3.992;2022-07-23T02:43:12;17.58;;;12.45;;
21591;SDS011;10958;50.892;3.992;2022-07-23T02:45:38;19.30;;;12.45;;
21591;SDS011;10958;50.892;3.992;2022-07-23T02:48:04;16.45;;;13.20;;
21591;SDS011;10958;50.892;3.992;2022-07-23T02:50:30;16.13;;;11.88;;
21591;SDS011;10958;50.892;3.992;2022-07-23T02:52:55;15.63;;;12.00;;
21591;SDS011;10958;50.892;3.992;2022-07-23T02:55:21;18.15;;;11.32;;
21591;SDS011;10958;50.892;3.992;2022-07-23T02:57:46;16.10;;;11.43;;
21591;SDS011;10958;50.892;3.992;2022-07-23T03:00:12;21.05;;;11.95;;
21591;SDS011;10958;50.892;3.992;2022-07-23T03:02:38;20.42;;;13.25;;
21591;SDS011;10958;50.892;3.992;2022-07-23T03:05:04;21.75;;;13.98;;
21591;SDS011;10958;50.892;3.992;2022-07-23T03:07:30;24.17;;;13.75;;
21591;SDS011;10958;50.892;3.992;2022-07-23T03:09:56;19.17;;;11.88;;
21591;SDS011;10958;50.892;3.992;2022-07-23T03:12:21;19.55;;;12.38;;
21591;SDS011;10958;50.892;3.992;2022-07-23T03:14:47;17.20;;;11.75;;
21591;SDS011;10958;50.892;3.992;2022-07-23T03:17:13;19.67;;;12.55;;
21591;SDS011;10958;50.892;3.992;2022-07-23T03:19:38;16.17;;;11.75;;
21591;SDS011;10958;50.892;3.992;2022-07-23T03:22:04;17.55;;;12.52;;
21591;SDS011;10958;50.892;3.992;2022-07-23T03:24:30;15.90;;;12.32;;
21591;SDS011;10958;50.892;3.992;2022-07-23T03:27:15;16.08;;;12.25;;
21591;SDS011;10958;50.892;3.992;2022-07-23T03:29:40;16.98;;;12.85;;
21591;SDS011;10958;50.892;3.992;2022-07-23T03:32:06;16.33;;;13.65;;
21591;SDS011;10958;50.892;3.992;2022-07-23T03:34:32;16.35;;;13.00;;
21591;SDS011;10958;50.892;3.992;2022-07-23T03:36:58;15.00;;;11.93;;
21591;SDS011;10958;50.892;3.992;2022-07-23T03:39:23;19.48;;;13.88;;
21591;SDS011;10958;50.892;3.992;2022-07-23T03:41:49;18.13;;;13.30;;
21591;SDS011;10958;50.892;3.992;2022-07-23T03:44:15;13.88;;;11.95;;
21591;SDS011;10958;50.892;3.992;2022-07-23T03:46:40;16.48;;;11.85;;
21591;SDS011;10958;50.892;3.992;2022-07-23T03:49:06;11.73;;;10.52;;
21591;SDS011;10958;50.892;3.992;2022-07-23T03:51:32;15.85;;;10.88;;
21591;SDS011;10958;50.892;3.992;2022-07-23T03:53:58;15.93;;;12.25;;
21591;SDS011;10958;50.892;3.992;2022-07-23T03:56:23;15.07;;;12.15;;
21591;SDS011;10958;50.892;3.992;2022-07-23T03:58:49;15.65;;;12.60;;
21591;SDS011;10958;50.892;3.992;2022-07-23T04:01:15;17.15;;;12.50;;
21591;SDS011;10958;50.892;3.992;2022-07-23T04:03:40;16.38;;;13.10;;
21591;SDS011;10958;50.892;3.992;2022-07-23T04:06:06;16.13;;;11.15;;
21591;SDS011;10958;50.892;3.992;2022-07-23T04:08:32;14.70;;;11.70;;
21591;SDS011;10958;50.892;3.992;2022-07-23T04:10:57;15.13;;;12.38;;
21591;SDS011;10958;50.892;3.992;2022-07-23T04:13:23;14.95;;;11.27;;
21591;SDS011;10958;50.892;3.992;2022-07-23T04:15:49;17.13;;;11.80;;
21591;SDS011;10958;50.892;3.992;2022-07-23T04:18:15;14.77;;;11.60;;
21591;SDS011;10958;50.892;3.992;2022-07-23T04:20:46;16.35;;;12.85;;
21591;SDS011;10958;50.892;3.992;2022-07-23T04:23:12;18.10;;;14.32;;
21591;SDS011;10958;50.892;3.992;2022-07-23T04:25:38;20.60;;;14.88;;
21591;SDS011;10958;50.892;3.992;2022-07-23T04:28:04;15.25;;;13.10;;
21591;SDS011;10958;50.892;3.992;2022-07-23T04:30:29;17.25;;;13.45;;
21591;SDS011;10958;50.892;3.992;2022-07-23T04:32:55;14.02;;;12.52;;
21591;SDS011;10958;50.892;3.992;2022-07-23T04:35:20;14.48;;;12.48;;
21591;SDS011;10958;50.892;3.992;2022-07-23T04:37:46;16.45;;;12.77;;
21591;SDS011;10958;50.892;3.992;2022-07-23T04:40:12;16.05;;;12.30;;
21591;SDS011;10958;50.892;3.992;2022-07-23T04:42:38;14.82;;;12.25;;
21591;SDS011;10958;50.892;3.992;2022-07-23T04:45:04;15.73;;;13.18;;
21591;SDS011;10958;50.892;3.992;2022-07-23T04:47:30;17.85;;;13.68;;
21591;SDS011;10958;50.892;3.992;2022-07-23T04:49:56;18.80;;;15.05;;
21591;SDS011;10958;50.892;3.992;2022-07-23T04:52:22;19.13;;;15.65;;
21591;SDS011;10958;50.892;3.992;2022-07-23T04:54:48;18.52;;;13.88;;
21591;SDS011;10958;50.892;3.992;2022-07-23T04:57:14;20.25;;;14.50;;
21591;SDS011;10958;50.892;3.992;2022-07-23T04:59:40;21.50;;;13.88;;
21591;SDS011;10958;50.892;3.992;2022-07-23T05:02:05;15.55;;;13.43;;
21591;SDS011;10958;50.892;3.992;2022-07-23T05:04:31;19.15;;;15.15;;
21591;SDS011;10958;50.892;3.992;2022-07-23T05:06:57;19.20;;;14.05;;
21591;SDS011;10958;50.892;3.992;2022-07-23T05:09:23;19.45;;;14.00;;
21591;SDS011;10958;50.892;3.992;2022-07-23T05:11:49;18.08;;;13.13;;
21591;SDS011;10958;50.892;3.992;2022-07-23T05:14:15;21.90;;;13.88;;
21591;SDS011;10958;50.892;3.992;2022-07-23T05:16:40;17.80;;;13.13;;
21591;SDS011;10958;50.892;3.992;2022-07-23T05:19:06;14.98;;;12.65;;
21591;SDS011;10958;50.892;3.992;2022-07-23T05:21:32;15.05;;;12.27;;
21591;SDS011;10958;50.892;3.992;2022-07-23T05:23:58;19.48;;;13.82;;
21591;SDS011;10958;50.892;3.992;2022-07-23T05:26:24;15.63;;;12.32;;
21591;SDS011;10958;50.892;3.992;2022-07-23T05:28:50;14.57;;;12.65;;
21591;SDS011;10958;50.892;3.992;2022-07-23T05:31:15;16.90;;;13.48;;
21591;SDS011;10958;50.892;3.992;2022-07-23T05:33:41;18.73;;;13.30;;
21591;SDS011;10958;50.892;3.992;2022-07-23T05:36:07;21.40;;;13.73;;
21591;SDS011;10958;50.892;3.992;2022-07-23T05:38:33;17.08;;;12.30;;
21591;SDS011;10958;50.892;3.992;2022-07-23T05:40:58;17.15;;;12.90;;
21591;SDS011;10958;50.892;3.992;2022-07-23T05:43:24;18.98;;;13.93;;
21591;SDS011;10958;50.892;3.992;2022-07-23T05:45:50;17.42;;;13.00;;
21591;SDS011;10958;50.892;3.992;2022-07-23T05:48:16;17.08;;;13.15;;
21591;SDS011;10958;50.892;3.992;2022-07-23T05:50:41;18.50;;;12.07;;
21591;SDS011;10958;50.892;3.992;2022-07-23T05:53:07;20.73;;;11.80;;
21591;SDS011;10958;50.892;3.992;2022-07-23T05:55:33;16.58;;;11.85;;
21591;SDS011;10958;50.892;3.992;2022-07-23T05:57:59;13.38;;;10.00;;
21591;SDS011;10958;50.892;3.992;2022-07-23T06:00:25;12.38;;;9.50;;
21591;SDS011;10958;50.892;3.992;2022-07-23T06:02:52;13.20;;;9.07;;
21591;SDS011;10958;50.892;3.992;2022-07-23T06:05:18;13.70;;;10.10;;
21591;SDS011;10958;50.892;3.992;2022-07-23T06:07:43;11.07;;;8.68;;
21591;SDS011;10958;50.892;3.992;2022-07-23T06:10:09;12.32;;;9.07;;
21591;SDS011;10958;50.892;3.992;2022-07-23T06:12:36;12.15;;;8.93;;
21591;SDS011;10958;50.892;3.992;2022-07-23T06:15:02;10.02;;;7.93;;
21591;SDS011;10958;50.892;3.992;2022-07-23T06:17:28;11.30;;;8.55;;
21591;SDS011;10958;50.892;3.992;2022-07-23T06:19:54;13.18;;;8.38;;
21591;SDS011;10958;50.892;3.992;2022-07-23T06:22:20;14.18;;;8.50;;
21591;SDS011;10958;50.892;3.992;2022-07-23T06:24:46;9.38;;;7.78;;
21591;SDS011;10958;50.892;3.992;2022-07-23T06:27:12;10.50;;;8.82;;
21591;SDS011;10958;50.892;3.992;2022-07-23T06:29:38;11.82;;;8.77;;
21591;SDS011;10958;50.892;3.992;2022-07-23T06:32:05;14.55;;;8.20;;
21591;SDS011;10958;50.892;3.992;2022-07-23T06:34:31;11.13;;;9.00;;
21591;SDS011;10958;50.892;3.992;2022-07-23T06:36:57;11.32;;;9.10;;
21591;SDS011;10958;50.892;3.992;2022-07-23T06:39:23;9.85;;;8.50;;
21591;SDS011;10958;50.892;3.992;2022-07-23T06:41:50;10.18;;;8.02;;
21591;SDS011;10958;50.892;3.992;2022-07-23T06:44:16;9.75;;;8.52;;
21591;SDS011;10958;50.892;3.992;2022-07-23T06:46:41;12.48;;;8.88;;
21591;SDS011;10958;50.892;3.992;2022-07-23T06:49:07;11.55;;;9.02;;
21591;SDS011;10958;50.892;3.992;2022-07-23T06:51:33;10.70;;;9.60;;
21591;SDS011;10958;50.892;3.992;2022-07-23T06:53:59;13.77;;;8.93;;
21591;SDS011;10958;50.892;3.992;2022-07-23T06:56:25;9.48;;;8.38;;
21591;SDS011;10958;50.892;3.992;2022-07-23T06:58:51;11.60;;;8.85;;
21591;SDS011;10958;50.892;3.992;2022-07-23T07:01:17;11.63;;;8.80;;
21591;SDS011;10958;50.892;3.992;2022-07-23T07:03:42;9.25;;;8.18;;
21591;SDS011;10958;50.892;3.992;2022-07-23T07:06:08;10.70;;;9.00;;
21591;SDS011;10958;50.892;3.992;2022-07-23T07:08:34;11.80;;;8.52;;
21591;SDS011;10958;50.892;3.992;2022-07-23T07:10:59;9.95;;;8.93;;
21591;SDS011;10958;50.892;3.992;2022-07-23T07:13:25;13.13;;;8.18;;
21591;SDS011;10958;50.892;3.992;2022-07-23T07:15:51;11.50;;;7.22;;
21591;SDS011;10958;50.892;3.992;2022-07-23T07:18:16;10.55;;;8.15;;
21591;SDS011;10958;50.892;3.992;2022-07-23T07:20:42;9.38;;;8.38;;
21591;SDS011;10958;50.892;3.992;2022-07-23T07:23:08;9.77;;;8.13;;
21591;SDS011;10958;50.892;3.992;2022-07-23T07:25:33;12.80;;;7.90;;
21591;SDS011;10958;50.892;3.992;2022-07-23T07:27:59;12.40;;;8.18;;
21591;SDS011;10958;50.892;3.992;2022-07-23T07:30:25;8.60;;;7.55;;
21591;SDS011;10958;50.892;3.992;2022-07-23T07:32:51;11.27;;;7.45;;
21591;SDS011;10958;50.892;3.992;2022-07-23T07:35:16;9.57;;;7.63;;
21591;SDS011;10958;50.892;3.992;2022-07-23T07:37:42;10.20;;;7.10;;
21591;SDS011;10958;50.892;3.992;2022-07-23T07:40:08;10.25;;;7.90;;
21591;SDS011;10958;50.892;3.992;2022-07-23T07:42:34;8.18;;;7.38;;
21591;SDS011;10958;50.892;3.992;2022-07-23T07:44:59;8.20;;;7.40;;
21591;SDS011;10958;50.892;3.992;2022-07-23T07:47:26;8.32;;;7.28;;
21591;SDS011;10958;50.892;3.992;2022-07-23T07:49:51;11.20;;;7.78;;
21591;SDS011;10958;50.892;3.992;2022-07-23T07:52:17;8.63;;;6.88;;
21591;SDS011;10958;50.892;3.992;2022-07-23T07:54:43;10.98;;;7.97;;
21591;SDS011;10958;50.892;3.992;2022-07-23T07:57:08;8.70;;;7.72;;
21591;SDS011;10958;50.892;3.992;2022-07-23T07:59:34;9.15;;;7.60;;
21591;SDS011;10958;50.892;3.992;2022-07-23T08:02:00;10.35;;;7.38;;
21591;SDS011;10958;50.892;3.992;2022-07-23T08:04:26;8.73;;;6.85;;
21591;SDS011;10958;50.892;3.992;2022-07-23T08:06:52;9.68;;;7.05;;
21591;SDS011;10958;50.892;3.992;2022-07-23T08:09:17;7.85;;;6.30;;
21591;SDS011;10958;50.892;3.992;2022-07-23T08:11:43;7.80;;;6.10;;
21591;SDS011;10958;50.892;3.992;2022-07-23T08:14:09;8.63;;;6.07;;
21591;SDS011;10958;50.892;3.992;2022-07-23T08:16:36;9.23;;;6.40;;
21591;SDS011;10958;50.892;3.992;2022-07-23T08:19:01;9.57;;;6.78;;
21591;SDS011;10958;50.892;3.992;2022-07-23T08:21:27;9.40;;;7.28;;
21591;SDS011;10958;50.892;3.992;2022-07-23T08:23:53;7.95;;;6.57;;
21591;SDS011;10958;50.892;3.992;2022-07-23T08:26:18;11.15;;;6.65;;
21591;SDS011;10958;50.892;3.992;2022-07-23T08:28:44;7.43;;;6.72;;
21591;SDS011;10958;50.892;3.992;2022-07-23T08:31:10;8.68;;;7.03;;
21591;SDS011;10958;50.892;3.992;2022-07-23T08:33:36;8.75;;;6.72;;
21591;SDS011;10958;50.892;3.992;2022-07-23T08:36:02;8.75;;;6.18;;
21591;SDS011;10958;50.892;3.992;2022-07-23T08:38:29;9.82;;;6.00;;
21591;SDS011;10958;50.892;3.992;2022-07-23T08:40:55;6.25;;;4.35;;
21591;SDS011;10958;50.892;3.992;2022-07-23T08:43:32;6.05;;;5.45;;
21591;SDS011;10958;50.892;3.992;2022-07-23T08:46:00;6.55;;;4.57;;
21591;SDS011;10958;50.892;3.992;2022-07-23T08:48:28;8.45;;;4.85;;
21591;SDS011;10958;50.892;3.992;2022-07-23T08:50:56;9.80;;;5.72;;
21591;SDS011;10958;50.892;3.992;2022-07-23T08:53:24;5.68;;;4.50;;
21591;SDS011;10958;50.892;3.992;2022-07-23T08:55:56;5.97;;;4.45;;
21591;SDS011;10958;50.892;3.992;2022-07-23T08:58:23;12.02;;;5.57;;
21591;SDS011;10958;50.892;3.992;2022-07-23T09:00:49;9.07;;;6.15;;
21591;SDS011;10958;50.892;3.992;2022-07-23T09:05:45;6.53;;;4.93;;
21591;SDS011;10958;50.892;3.992;2022-07-23T09:08:16;7.55;;;4.30;;
21591;SDS011;10958;50.892;3.992;2022-07-23T09:15:59;6.78;;;5.28;;
21591;SDS011;10958;50.892;3.992;2022-07-23T09:18:31;6.78;;;5.15;;
21591;SDS011;10958;50.892;3.992;2022-07-23T09:26:19;7.82;;;5.05;;
21591;SDS011;10958;50.892;3.992;2022-07-23T09:28:51;6.10;;;4.85;;
21591;SDS011;10958;50.892;3.992;2022-07-23T09:31:24;6.70;;;5.05;;
21591;SDS011;10958;50.892;3.992;2022-07-23T09:34:06;9.48;;;4.78;;
21591;SDS011;10958;50.892;3.992;2022-07-23T09:36:35;5.35;;;4.78;;
21591;SDS011;10958;50.892;3.992;2022-07-23T09:39:02;5.93;;;4.18;;
21591;SDS011;10958;50.892;3.992;2022-07-23T09:41:38;5.40;;;3.83;;
21591;SDS011;10958;50.892;3.992;2022-07-23T09:44:06;5.20;;;3.63;;
21591;SDS011;10958;50.892;3.992;2022-07-23T09:46:34;6.63;;;3.95;;
21591;SDS011;10958;50.892;3.992;2022-07-23T09:49:00;7.13;;;4.07;;
21591;SDS011;10958;50.892;3.992;2022-07-23T09:51:49;4.40;;;3.50;;
21591;SDS011;10958;50.892;3.992;2022-07-23T09:56:50;3.83;;;3.10;;
21591;SDS011;10958;50.892;3.992;2022-07-23T09:59:25;4.65;;;2.60;;
21591;SDS011;10958;50.892;3.992;2022-07-23T10:03:40;3.92;;;3.08;;
21591;SDS011;10958;50.892;3.992;2022-07-23T10:06:07;3.28;;;2.67;;
21591;SDS011;10958;50.892;3.992;2022-07-23T10:08:35;4.10;;;3.67;;
21591;SDS011;10958;50.892;3.992;2022-07-23T10:11:00;3.30;;;2.67;;
21591;SDS011;10958;50.892;3.992;2022-07-23T10:13:28;3.55;;;2.17;;
21591;SDS011;10958;50.892;3.992;2022-07-23T10:16:12;4.15;;;1.90;;
21591;SDS011;10958;50.892;3.992;2022-07-23T10:18:38;4.20;;;2.58;;
21591;SDS011;10958;50.892;3.992;2022-07-23T10:21:06;3.97;;;2.78;;
21591;SDS011;10958;50.892;3.992;2022-07-23T10:23:45;3.00;;;2.30;;
21591;SDS011;10958;50.892;3.992;2022-07-23T10:34:50;3.63;;;2.70;;
21591;SDS011;10958;50.892;3.992;2022-07-23T10:42:35;4.55;;;2.40;;
21591;SDS011;10958;50.892;3.992;2022-07-23T10:45:02;7.00;;;2.55;;
21591;SDS011;10958;50.892;3.992;2022-07-23T10:47:50;4.00;;;2.80;;
21591;SDS011;10958;50.892;3.992;2022-07-23T10:50:21;2.60;;;2.40;;
21591;SDS011;10958;50.892;3.992;2022-07-23T10:53:22;7.05;;;2.97;;
21591;SDS011;10958;50.892;3.992;2022-07-23T10:55:43;3.00;;;2.60;;
21591;SDS011;10958;50.892;3.992;2022-07-23T10:58:16;3.50;;;2.38;;
21591;SDS011;10958;50.892;3.992;2022-07-23T11:04:01;2.67;;;2.40;;
21591;SDS011;10958;50.892;3.992;2022-07-23T11:17:27;4.88;;;2.22;;
21591;SDS011;10958;50.892;3.992;2022-07-23T11:25:02;2.53;;;2.15;;
21591;SDS011;10958;50.892;3.992;2022-07-23T11:27:41;4.55;;;2.50;;
21591;SDS011;10958;50.892;3.992;2022-07-23T11:33:39;2.78;;;2.10;;
21591;SDS011;10958;50.892;3.992;2022-07-23T11:35:40;2.45;;;2.00;;
21591;SDS011;10958;50.892;3.992;2022-07-23T11:43:09;3.33;;;2.25;;
21591;SDS011;10958;50.892;3.992;2022-07-23T11:48:07;6.38;;;2.72;;
21591;SDS011;10958;50.892;3.992;2022-07-23T11:50:34;4.40;;;2.67;;
21591;SDS011;10958;50.892;3.992;2022-07-23T11:53:00;4.32;;;2.25;;
21591;SDS011;10958;50.892;3.992;2022-07-23T11:55:26;4.45;;;2.65;;
21591;SDS011;10958;50.892;3.992;2022-07-23T11:57:53;6.50;;;2.80;;
21591;SDS011;10958;50.892;3.992;2022-07-23T12:00:27;7.32;;;2.33;;
21591;SDS011;10958;50.892;3.992;2022-07-23T12:02:56;4.25;;;2.55;;
21591;SDS011;10958;50.892;3.992;2022-07-23T12:05:35;4.22;;;2.80;;
21591;SDS011;10958;50.892;3.992;2022-07-23T12:08:04;4.90;;;2.40;;
21591;SDS011;10958;50.892;3.992;2022-07-23T12:10:42;4.43;;;2.40;;
21591;SDS011;10958;50.892;3.992;2022-07-23T12:13:10;4.05;;;2.60;;
21591;SDS011;10958;50.892;3.992;2022-07-23T12:15:44;4.05;;;2.67;;
21591;SDS011;10958;50.892;3.992;2022-07-23T12:18:12;5.13;;;2.88;;
21591;SDS011;10958;50.892;3.992;2022-07-23T12:20:43;6.32;;;3.80;;
21591;SDS011;10958;50.892;3.992;2022-07-23T12:23:18;4.80;;;2.75;;
21591;SDS011;10958;50.892;3.992;2022-07-23T12:25:46;6.75;;;2.60;;
21591;SDS011;10958;50.892;3.992;2022-07-23T12:28:17;3.80;;;2.53;;
21591;SDS011;10958;50.892;3.992;2022-07-23T12:30:54;5.32;;;2.30;;
21591;SDS011;10958;50.892;3.992;2022-07-23T12:33:26;3.45;;;2.50;;
21591;SDS011;10958;50.892;3.992;2022-07-23T12:35:55;4.55;;;2.88;;
21591;SDS011;10958;50.892;3.992;2022-07-23T12:38:26;6.70;;;2.70;;
21591;SDS011;10958;50.892;3.992;2022-07-23T12:41:00;4.40;;;2.47;;
21591;SDS011;10958;50.892;3.992;2022-07-23T12:43:33;2.88;;;2.40;;
21591;SDS011;10958;50.892;3.992;2022-07-23T12:48:33;3.70;;;2.90;;
21591;SDS011;10958;50.892;3.992;2022-07-23T12:53:28;4.60;;;3.10;;
21591;SDS011;10958;50.892;3.992;2022-07-23T12:58:56;4.47;;;2.50;;
21591;SDS011;10958;50.892;3.992;2022-07-23T13:04:18;4.85;;;2.95;;
21591;SDS011;10958;50.892;3.992;2022-07-23T13:06:47;6.60;;;2.40;;
21591;SDS011;10958;50.892;3.992;2022-07-23T13:09:21;9.75;;;2.20;;
21591;SDS011;10958;50.892;3.992;2022-07-23T13:11:49;4.13;;;2.60;;
21591;SDS011;10958;50.892;3.992;2022-07-23T13:14:16;4.28;;;3.25;;
21591;SDS011;10958;50.892;3.992;2022-07-23T13:16:43;3.20;;;2.90;;
21591;SDS011;10958;50.892;3.992;2022-07-23T13:19:10;3.92;;;2.75;;
21591;SDS011;10958;50.892;3.992;2022-07-23T13:21:35;7.07;;;2.60;;
21591;SDS011;10958;50.892;3.992;2022-07-23T13:24:01;2.90;;;2.60;;
21591;SDS011;10958;50.892;3.992;2022-07-23T13:26:27;5.15;;;2.50;;
21591;SDS011;10958;50.892;3.992;2022-07-23T13:28:53;4.90;;;2.70;;
21591;SDS011;10958;50.892;3.992;2022-07-23T13:31:19;2.95;;;2.55;;
21591;SDS011;10958;50.892;3.992;2022-07-23T13:33:45;4.00;;;2.85;;
21591;SDS011;10958;50.892;3.992;2022-07-23T13:36:10;3.95;;;2.88;;
21591;SDS011;10958;50.892;3.992;2022-07-23T13:38:36;4.60;;;3.10;;
21591;SDS011;10958;50.892;3.992;2022-07-23T13:41:02;3.88;;;2.53;;
21591;SDS011;10958;50.892;3.992;2022-07-23T13:43:28;6.90;;;2.90;;
21591;SDS011;10958;50.892;3.992;2022-07-23T13:45:54;3.20;;;2.72;;
21591;SDS011;10958;50.892;3.992;2022-07-23T13:48:19;5.18;;;3.03;;
21591;SDS011;10958;50.892;3.992;2022-07-23T13:50:46;6.13;;;2.78;;
21591;SDS011;10958;50.892;3.992;2022-07-23T13:53:20;4.93;;;2.70;;
21591;SDS011;10958;50.892;3.992;2022-07-23T13:55:47;5.10;;;3.00;;
21591;SDS011;10958;50.892;3.992;2022-07-23T13:58:14;4.85;;;2.90;;
21591;SDS011;10958;50.892;3.992;2022-07-23T14:00:42;5.75;;;2.53;;
21591;SDS011;10958;50.892;3.992;2022-07-23T14:03:10;5.25;;;2.72;;
21591;SDS011;10958;50.892;3.992;2022-07-23T14:05:36;5.00;;;3.63;;
21591;SDS011;10958;50.892;3.992;2022-07-23T14:08:02;4.53;;;3.50;;
21591;SDS011;10958;50.892;3.992;2022-07-23T14:10:29;4.63;;;3.30;;
21591;SDS011;10958;50.892;3.992;2022-07-23T14:12:55;5.07;;;3.45;;
21591;SDS011;10958;50.892;3.992;2022-07-23T14:15:23;5.32;;;3.53;;
21591;SDS011;10958;50.892;3.992;2022-07-23T14:17:51;3.42;;;2.95;;
21591;SDS011;10958;50.892;3.992;2022-07-23T14:20:17;5.05;;;3.05;;
21591;SDS011;10958;50.892;3.992;2022-07-23T14:22:43;3.53;;;3.10;;
21591;SDS011;10958;50.892;3.992;2022-07-23T14:25:10;5.10;;;2.95;;
21591;SDS011;10958;50.892;3.992;2022-07-23T14:27:36;6.13;;;3.80;;
21591;SDS011;10958;50.892;3.992;2022-07-23T14:30:03;4.22;;;3.72;;
21591;SDS011;10958;50.892;3.992;2022-07-23T14:32:30;7.82;;;3.92;;
21591;SDS011;10958;50.892;3.992;2022-07-23T14:34:55;5.47;;;3.95;;
21591;SDS011;10958;50.892;3.992;2022-07-23T14:37:21;5.70;;;3.90;;
21591;SDS011;10958;50.892;3.992;2022-07-23T14:39:47;6.05;;;4.35;;
21591;SDS011;10958;50.892;3.992;2022-07-23T14:42:13;5.90;;;3.70;;
21591;SDS011;10958;50.892;3.992;2022-07-23T14:44:38;4.38;;;3.58;;
21591;SDS011;10958;50.892;3.992;2022-07-23T14:47:04;5.93;;;3.63;;
21591;SDS011;10958;50.892;3.992;2022-07-23T14:49:31;5.03;;;3.67;;
21591;SDS011;10958;50.892;3.992;2022-07-23T14:51:57;6.93;;;3.53;;
21591;SDS011;10958;50.892;3.992;2022-07-23T14:54:24;4.35;;;3.72;;
21591;SDS011;10958;50.892;3.992;2022-07-23T14:56:51;5.55;;;3.25;;
21591;SDS011;10958;50.892;3.992;2022-07-23T14:59:20;4.40;;;4.00;;
21591;SDS011;10958;50.892;3.992;2022-07-23T15:01:46;9.93;;;3.90;;
21591;SDS011;10958;50.892;3.992;2022-07-23T15:04:11;6.88;;;3.60;;
21591;SDS011;10958;50.892;3.992;2022-07-23T15:06:37;8.30;;;4.25;;
21591;SDS011;10958;50.892;3.992;2022-07-23T15:09:04;4.22;;;3.83;;
21591;SDS011;10958;50.892;3.992;2022-07-23T15:11:29;6.18;;;4.05;;
21591;SDS011;10958;50.892;3.992;2022-07-23T15:13:58;4.15;;;3.72;;
21591;SDS011;10958;50.892;3.992;2022-07-23T15:16:29;7.50;;;4.00;;
21591;SDS011;10958;50.892;3.992;2022-07-23T15:18:54;4.85;;;4.32;;
21591;SDS011;10958;50.892;3.992;2022-07-23T15:21:20;7.22;;;4.10;;
21591;SDS011;10958;50.892;3.992;2022-07-23T15:23:47;5.57;;;4.00;;
21591;SDS011;10958;50.892;3.992;2022-07-23T15:26:14;4.97;;;3.75;;
21591;SDS011;10958;50.892;3.992;2022-07-23T15:28:40;5.35;;;4.07;;
21591;SDS011;10958;50.892;3.992;2022-07-23T15:31:06;5.53;;;3.85;;
21591;SDS011;10958;50.892;3.992;2022-07-23T15:33:33;5.63;;;4.03;;
21591;SDS011;10958;50.892;3.992;2022-07-23T15:36:00;4.65;;;4.15;;
21591;SDS011;10958;50.892;3.992;2022-07-23T15:38:26;6.03;;;4.22;;
21591;SDS011;10958;50.892;3.992;2022-07-23T15:40:53;6.72;;;4.50;;
21591;SDS011;10958;50.892;3.992;2022-07-23T15:43:19;6.13;;;4.60;;
21591;SDS011;10958;50.892;3.992;2022-07-23T15:45:46;6.40;;;4.10;;
21591;SDS011;10958;50.892;3.992;2022-07-23T15:48:12;7.10;;;4.45;;